Time;durP1;ratioP1;P1;durP2;ratioP2;P2;SDS_P1;SDS_P2;PMS_P1;PMS_P2;Temp;Humidity;BMP_temperature;BMP_pressure;BME280_temperature;BME280_humidity;BME280_pressure;Samples;Min_cycle;Max_cycle;Signal;HPM_P1;HPM_P2
2022/03/16 00:00:32;;;;;;;;;;;;;;;;;;5012829;28;19932;-47
2022/03/16 00:02:58;;;;;;;;;;;;;;;;;;5010533;28;20375;-48
2022/03/16 00:05:26;;;;;;;;;;;;;;;;;;5013565;28;19975;-49
2022/03/16 00:07:54;;;;;;;;;;;;;;;;;;5013836;28;19914;-46
2022/03/16 00:10:20;;;;;;;;;;;;;;;;;;5013695;28;19910;-42
2022/03/16 00:12:47;;;;;;;;;;;;;;;;;;5009253;28;19920;-42
2022/03/16 00:15:13;;;;;;;;;;;;;;;;;;5013626;28;19913;-43
2022/03/16 00:17:40;;;;;;;;;;;;;;;;;;5013877;28;19913;-48
2022/03/16 00:20:07;;;;;;;;;;;;;;;;;;5014137;28;20055;-44
2022/03/16 00:22:33;;;;;;;;;;;;;;;;;;5008914;28;19909;-46
2022/03/16 00:25:01;;;;;;;;;;;;;;;;;;5011692;28;20414;-45
2022/03/16 00:27:28;;;;;;;;;;;;;;;;;;5013613;28;19909;-47
2022/03/16 00:29:54;;;;;;;;;;;;;;;;;;5013257;28;19909;-46
2022/03/16 00:32:21;;;;;;;;;;;;;;;;;;5009297;28;19913;-48
2022/03/16 00:34:47;;;;;;;;;;;;;;;;;;5012993;28;19986;-45
2022/03/16 00:37:14;;;;;;;;;;;;;;;;;;5013186;28;19952;-43
2022/03/16 00:39:40;;;;;;;;;;;;;;;;;;5012827;28;19910;-45
2022/03/16 00:42:07;;;;;;;;;;;;;;;;;;5007931;28;19913;-43
2022/03/16 00:44:35;;;;;;;;;;;;;;;;;;5012764;28;20003;-45
2022/03/16 00:47:01;;;;;;;;;;;;;;;;;;4992190;28;19913;-44
2022/03/16 00:49:27;;;;;;;;;;;;;;;;;;5013060;28;19914;-46
2022/03/16 00:51:54;;;;;;;;;;;;;;;;;;5007451;28;19967;-42
2022/03/16 00:54:20;;;;;;;;;;;;;;;;;;5012401;28;19979;-42
2022/03/16 00:56:47;;;;;;;;;;;;;;;;;;5012720;28;19927;-41
2022/03/16 00:59:13;;;;;;;;;;;;;;;;;;5012457;28;19920;-51
2022/03/16 01:01:40;;;;;;;;;;;;;;;;;;5007640;28;19916;-44
2022/03/16 01:04:06;;;;;;;;;;;;;;;;;;5012534;28;19913;-42
2022/03/16 01:06:33;;;;;;;;;;;;;;;;;;5012778;28;19917;-36
2022/03/16 01:08:59;;;;;;;;;;;;;;;;;;5012306;28;19909;-36
2022/03/16 01:11:26;;;;;;;;;;;;;;;;;;5006975;28;19971;-35
2022/03/16 01:13:52;;;;;;;;;;;;;;;;;;5012655;28;19917;-42
2022/03/16 01:16:19;;;;;;;;;;;;;;;;;;5012356;28;19917;-43
2022/03/16 01:18:45;;;;;;;;;;;;;;;;;;4995444;28;19909;-42
2022/03/16 01:21:12;;;;;;;;;;;;;;;;;;5007068;28;19918;-47
2022/03/16 01:23:38;;;;;;;;;;;;;;;;;;4995142;28;19909;-41
2022/03/16 01:26:05;;;;;;;;;;;;;;;;;;5011811;28;20004;-35
2022/03/16 01:28:31;;;;;;;;;;;;;;;;;;5012352;28;19920;-39
2022/03/16 01:31:01;;;;;;;;;;;;;;;;;;5006386;28;20673;-35
2022/03/16 01:33:27;;;;;;;;;;;;;;;;;;5011967;28;19909;-37
2022/03/16 01:35:54;;;;;;;;;;;;;;;;;;5011240;28;20011;-45
2022/03/16 01:38:20;;;;;;;;;;;;;;;;;;5012177;28;19922;-35
2022/03/16 01:40:47;;;;;;;;;;;;;;;;;;5008801;28;19983;-39
2022/03/16 01:43:13;;;;;;;;;;;;;;;;;;5011419;28;19918;-46
2022/03/16 01:45:40;;;;;;;;;;;;;;;;;;5011198;28;20004;-48
2022/03/16 01:48:06;;;;;;;;;;;;;;;;;;5013014;28;20348;-35
2022/03/16 01:50:33;;;;;;;;;;;;;;;;;;5010017;28;19914;-35
2022/03/16 01:52:59;;;;;;;;;;;;;;;;;;4991481;28;20407;-44
2022/03/16 01:55:26;;;;;;;;;;;;;;;;;;5011093;28;20365;-47
2022/03/16 01:57:52;;;;;;;;;;;;;;;;;;5011809;28;19909;-42
2022/03/16 02:00:18;;;;;;;;;;;;;;;;;;5012044;28;19920;-52
2022/03/16 02:02:46;;;;;;;;;;;;;;;;;;5006131;28;19932;-50
2022/03/16 02:05:12;;;;;;;;;;;;;;;;;;5010747;28;20017;-52
2022/03/16 02:07:39;;;;;;;;;;;;;;;;;;5011764;28;19928;-51
2022/03/16 02:10:05;;;;;;;;;;;;;;;;;;5011627;28;19985;-40
2022/03/16 02:12:32;;;;;;;;;;;;;;;;;;5005660;28;19909;-52
2022/03/16 02:14:58;;;;;;;;;;;;;;;;;;5010320;28;19914;-49
2022/03/16 02:17:25;;;;;;;;;;;;;;;;;;5010970;28;19957;-41
2022/03/16 02:19:51;;;;;;;;;;;;;;;;;;5011821;28;19916;-44
2022/03/16 02:22:18;;;;;;;;;;;;;;;;;;5006167;28;19913;-43
2022/03/16 02:24:44;;;;;;;;;;;;;;;;;;5010657;28;19940;-46
2022/03/16 02:27:10;;;;;;;;;;;;;;;;;;5011292;28;19987;-56
2022/03/16 02:29:37;;;;;;;;;;;;;;;;;;5011713;28;19917;-54
2022/03/16 02:32:03;;;;;;;;;;;;;;;;;;5005852;28;20059;-50
2022/03/16 02:34:30;;;;;;;;;;;;;;;;;;5010926;28;19913;-54
2022/03/16 02:36:56;;;;;;;;;;;;;;;;;;5010672;28;20025;-52
2022/03/16 02:39:23;;;;;;;;;;;;;;;;;;4993466;28;19948;-49
2022/03/16 02:41:53;;;;;;;;;;;;;;;;;;5004777;28;21258;-44
2022/03/16 02:44:20;;;;;;;;;;;;;;;;;;5010555;28;19927;-48
2022/03/16 02:46:46;;;;;;;;;;;;;;;;;;5008814;28;19917;-44
2022/03/16 02:49:13;;;;;;;;;;;;;;;;;;5012904;28;19932;-50
2022/03/16 02:51:39;;;;;;;;;;;;;;;;;;5010381;28;19960;-49
2022/03/16 02:54:06;;;;;;;;;;;;;;;;;;5015079;28;19935;-46
2022/03/16 02:56:33;;;;;;;;;;;;;;;;;;5014412;28;19975;-44
2022/03/16 02:58:59;;;;;;;;;;;;;;;;;;5015194;28;19910;-42
2022/03/16 03:01:26;;;;;;;;;;;;;;;;;;5010080;28;19909;-46
2022/03/16 03:03:52;;;;;;;;;;;;;;;;;;5015162;28;19909;-46
2022/03/16 03:06:18;;;;;;;;;;;;;;;;;;5014106;28;19910;-44
2022/03/16 03:08:45;;;;;;;;;;;;;;;;;;5015183;28;19928;-44
2022/03/16 03:11:12;;;;;;;;;;;;;;;;;;5008898;28;19956;-57
2022/03/16 03:13:39;;;;;;;;;;;;;;;;;;5014493;28;20001;-58
2022/03/16 03:16:05;;;;;;;;;;;;;;;;;;5014566;28;19917;-50
2022/03/16 03:18:35;;;;;;;;;;;;;;;;;;5015326;28;19985;-55
2022/03/16 03:21:02;;;;;;;;;;;;;;;;;;5015193;28;19910;-53
2022/03/16 03:23:28;;;;;;;;;;;;;;;;;;5015921;28;19917;-56
2022/03/16 03:25:55;;;;;;;;;;;;;;;;;;5015828;28;19977;-57
2022/03/16 03:28:21;;;;;;;;;;;;;;;;;;5015601;28;19909;-59
2022/03/16 03:30:48;;;;;;;;;;;;;;;;;;5015240;28;19913;-58
2022/03/16 03:33:14;;;;;;;;;;;;;;;;;;5015717;28;19988;-59
2022/03/16 03:35:41;;;;;;;;;;;;;;;;;;5015790;28;19920;-54
2022/03/16 03:38:07;;;;;;;;;;;;;;;;;;5015678;28;20012;-49
2022/03/16 03:40:34;;;;;;;;;;;;;;;;;;5016099;28;20008;-58
2022/03/16 03:43:00;;;;;;;;;;;;;;;;;;4998026;28;19917;-59
2022/03/16 03:45:27;;;;;;;;;;;;;;;;;;5015647;28;19933;-57
2022/03/16 03:47:53;;;;;;;;;;;;;;;;;;5010648;28;20317;-50
2022/03/16 03:50:20;;;;;;;;;;;;;;;;;;5014313;28;19909;-59
2022/03/16 03:52:46;;;;;;;;;;;;;;;;;;4998089;28;19909;-53
2022/03/16 03:55:13;;;;;;;;;;;;;;;;;;5014590;28;19917;-60
2022/03/16 03:57:39;;;;;;;;;;;;;;;;;;5014624;28;19914;-59
2022/03/16 04:00:05;;;;;;;;;;;;;;;;;;5015170;28;19909;-54
2022/03/16 04:02:32;;;;;;;;;;;;;;;;;;5015044;28;19952;-58
2022/03/16 04:04:58;;;;;;;;;;;;;;;;;;5015199;28;20368;-52
2022/03/16 04:07:25;;;;;;;;;;;;;;;;;;5015549;28;19913;-55
2022/03/16 04:09:53;;;;;;;;;;;;;;;;;;5015365;28;19910;-57
2022/03/16 04:12:19;;;;;;;;;;;;;;;;;;5015201;28;20319;-53
2022/03/16 04:14:46;;;;;;;;;;;;;;;;;;5015100;28;20283;-59
2022/03/16 04:17:12;;;;;;;;;;;;;;;;;;5014538;28;20347;-58
2022/03/16 04:19:39;;;;;;;;;;;;;;;;;;5015189;28;19926;-54
2022/03/16 04:22:05;;;;;;;;;;;;;;;;;;5015199;28;20021;-57
2022/03/16 04:24:32;;;;;;;;;;;;;;;;;;5014906;28;19971;-50
2022/03/16 04:26:58;;;;;;;;;;;;;;;;;;5014648;28;19909;-54
2022/03/16 04:29:24;;;;;;;;;;;;;;;;;;5015145;28;20352;-61
2022/03/16 04:31:51;;;;;;;;;;;;;;;;;;5014494;28;19917;-55
2022/03/16 04:34:17;;;;;;;;;;;;;;;;;;5014788;28;20291;-51
2022/03/16 04:36:44;;;;;;;;;;;;;;;;;;5014328;28;20012;-53
2022/03/16 04:39:12;;;;;;;;;;;;;;;;;;5013752;28;20333;-50
2022/03/16 04:41:38;;;;;;;;;;;;;;;;;;5014338;28;19913;-49
2022/03/16 04:44:05;;;;;;;;;;;;;;;;;;5014444;28;19916;-57
2022/03/16 04:46:31;;;;;;;;;;;;;;;;;;5013115;28;19916;-49
2022/03/16 04:48:58;;;;;;;;;;;;;;;;;;4995831;28;20004;-55
2022/03/16 04:51:24;;;;;;;;;;;;;;;;;;5014482;28;20307;-54
2022/03/16 04:53:51;;;;;;;;;;;;;;;;;;5013628;28;20276;-48
2022/03/16 04:56:17;;;;;;;;;;;;;;;;;;5014074;28;19925;-53
2022/03/16 04:58:44;;;;;;;;;;;;;;;;;;5013673;28;19948;-53
2022/03/16 05:01:10;;;;;;;;;;;;;;;;;;5013755;28;19913;-57
2022/03/16 05:03:37;;;;;;;;;;;;;;;;;;5014014;28;20014;-49
2022/03/16 05:06:04;;;;;;;;;;;;;;;;;;5014266;28;19932;-56
2022/03/16 05:08:35;;;;;;;;;;;;;;;;;;5013602;28;19909;-48
2022/03/16 05:11:02;;;;;;;;;;;;;;;;;;5013320;28;19917;-56
2022/03/16 05:13:28;;;;;;;;;;;;;;;;;;5013663;28;19910;-49
2022/03/16 05:15:55;;;;;;;;;;;;;;;;;;5011337;28;19920;-49
2022/03/16 05:18:23;;;;;;;;;;;;;;;;;;5010290;28;19913;-51
2022/03/16 05:20:49;;;;;;;;;;;;;;;;;;5012973;28;20029;-48
2022/03/16 05:23:16;;;;;;;;;;;;;;;;;;5013610;28;19917;-47
2022/03/16 05:25:42;;;;;;;;;;;;;;;;;;5014096;28;19922;-48
2022/03/16 05:28:09;;;;;;;;;;;;;;;;;;5013298;28;19917;-47
2022/03/16 05:30:35;;;;;;;;;;;;;;;;;;5013542;28;19910;-48
2022/03/16 05:33:02;;;;;;;;;;;;;;;;;;5013698;28;19910;-51
2022/03/16 05:35:28;;;;;;;;;;;;;;;;;;5013061;28;19916;-51
2022/03/16 05:37:55;;;;;;;;;;;;;;;;;;5012645;28;20007;-52
2022/03/16 05:40:21;;;;;;;;;;;;;;;;;;5005694;28;19918;-50
2022/03/16 05:42:48;;;;;;;;;;;;;;;;;;5010482;28;20914;-45
2022/03/16 05:45:14;;;;;;;;;;;;;;;;;;5011870;28;19909;-42
2022/03/16 05:47:41;;;;;;;;;;;;;;;;;;5012229;28;20047;-47
2022/03/16 05:50:07;;;;;;;;;;;;;;;;;;5013436;28;20012;-42
2022/03/16 05:52:34;;;;;;;;;;;;;;;;;;5009507;28;19914;-62
2022/03/16 05:55:01;;;;;;;;;;;;;;;;;;5011967;28;19913;-57
2022/03/16 05:57:28;;;;;;;;;;;;;;;;;;5011843;28;19921;-62
2022/03/16 05:59:54;;;;;;;;;;;;;;;;;;5012823;28;19916;-52
2022/03/16 06:02:21;;;;;;;;;;;;;;;;;;4995107;28;19920;-60
2022/03/16 06:04:47;;;;;;;;;;;;;;;;;;4992579;28;19921;-64
2022/03/16 06:07:13;;;;;;;;;;;;;;;;;;5011596;28;19943;-58
2022/03/16 06:09:40;;;;;;;;;;;;;;;;;;5011591;28;20333;-66
2022/03/16 06:12:06;;;;;;;;;;;;;;;;;;5012111;28;20268;-60
2022/03/16 06:14:33;;;;;;;;;;;;;;;;;;5012365;28;19909;-59
2022/03/16 06:16:59;;;;;;;;;;;;;;;;;;5011839;28;20382;-60
2022/03/16 06:19:26;;;;;;;;;;;;;;;;;;5012547;28;19910;-64
2022/03/16 06:21:52;;;;;;;;;;;;;;;;;;5011840;28;20051;-55
2022/03/16 06:24:19;;;;;;;;;;;;;;;;;;5012341;28;19909;-47
2022/03/16 06:26:45;;;;;;;;;;;;;;;;;;5012451;28;19960;-59
2022/03/16 06:29:12;;;;;;;;;;;;;;;;;;5012201;28;19910;-59
2022/03/16 06:31:38;;;;;;;;;;;;;;;;;;5012412;28;19920;-58
2022/03/16 06:34:05;;;;;;;;;;;;;;;;;;4994433;28;19922;-61
2022/03/16 06:36:31;;;;;;;;;;;;;;;;;;5012342;28;20383;-63
2022/03/16 06:38:58;;;;;;;;;;;;;;;;;;5012339;28;20012;-59
2022/03/16 06:41:24;;;;;;;;;;;;;;;;;;5011768;28;19982;-60
2022/03/16 06:43:51;;;;;;;;;;;;;;;;;;5012311;28;20349;-51
2022/03/16 06:46:17;;;;;;;;;;;;;;;;;;5012717;28;20427;-64
2022/03/16 06:48:44;;;;;;;;;;;;;;;;;;5012648;28;19909;-66
2022/03/16 06:51:10;;;;;;;;;;;;;;;;;;5012139;28;19916;-50
2022/03/16 06:53:36;;;;;;;;;;;;;;;;;;5011845;28;20370;-55
2022/03/16 06:56:03;;;;;;;;;;;;;;;;;;4994404;28;19913;-61
2022/03/16 06:58:29;;;;;;;;;;;;;;;;;;5012770;28;19916;-49
2022/03/16 07:00:56;;;;;;;;;;;;;;;;;;5011933;28;19991;-59
2022/03/16 07:03:22;;;;;;;;;;;;;;;;;;5012160;28;19909;-49
2022/03/16 07:05:49;;;;;;;;;;;;;;;;;;5012334;28;19912;-53
2022/03/16 07:08:15;;;;;;;;;;;;;;;;;;5012465;28;19909;-55
2022/03/16 07:10:42;;;;;;;;;;;;;;;;;;5011736;28;19905;-65
2022/03/16 07:13:09;;;;;;;;;;;;;;;;;;5011947;28;19910;-65
2022/03/16 07:15:36;;;;;;;;;;;;;;;;;;5011934;28;19937;-62
2022/03/16 07:18:02;;;;;;;;;;;;;;;;;;5012354;28;19956;-65
2022/03/16 07:20:29;;;;;;;;;;;;;;;;;;5011612;28;19978;-63
2022/03/16 07:22:55;;;;;;;;;;;;;;;;;;5011598;28;19910;-66
2022/03/16 07:25:22;;;;;;;;;;;;;;;;;;5012057;28;19921;-60
2022/03/16 07:27:49;;;;;;;;;;;;;;;;;;5011264;28;20276;-57
2022/03/16 07:30:16;;;;;;;;;;;;;;;;;;5012107;28;20376;-58
2022/03/16 07:32:44;;;;;;;;;;;;;;;;;;5012263;28;20249;-51
2022/03/16 07:35:10;;;;;;;;;;;;;;;;;;5014668;28;19917;-67
2022/03/16 07:37:37;;;;;;;;;;;;;;;;;;4997483;28;19922;-56
2022/03/16 07:40:03;;;;;;;;;;;;;;;;;;5015487;28;19941;-60
2022/03/16 07:42:30;;;;;;;;;;;;;;;;;;5015439;28;19913;-62
2022/03/16 07:44:56;;;;;;;;;;;;;;;;;;5015877;28;19987;-64
2022/03/16 07:47:25;;;;;;;;;;;;;;;;;;5015549;28;19905;-63
2022/03/16 07:49:51;;;;;;;;;;;;;;;;;;4997996;28;19916;-54
2022/03/16 07:52:20;;;;;;;;;;;;;;;;;;5014946;28;19952;-58
2022/03/16 07:54:46;;;;;;;;;;;;;;;;;;5015736;28;19917;-59
2022/03/16 07:57:13;;;;;;;;;;;;;;;;;;4997707;28;20327;-55
2022/03/16 07:59:39;;;;;;;;;;;;;;;;;;5015086;28;20265;-57
2022/03/16 08:02:05;;;;;;;;;;;;;;;;;;5015104;28;20005;-64
2022/03/16 08:04:32;;;;;;;;;;;;;;;;;;5014348;28;19916;-49
2022/03/16 08:06:58;;;;;;;;;;;;;;;;;;5014115;28;19959;-41
2022/03/16 08:09:25;;;;;;;;;;;;;;;;;;5014971;28;19910;-46
2022/03/16 08:11:51;;;;;;;;;;;;;;;;;;5015362;28;19909;-40
2022/03/16 08:14:18;;;;;;;;;;;;;;;;;;5014937;28;20253;-44
2022/03/16 08:16:44;;;;;;;;;;;;;;;;;;5014588;28;20391;-49
2022/03/16 08:19:13;;;;;;;;;;;;;;;;;;5015413;28;19909;-60
2022/03/16 08:21:39;;;;;;;;;;;;;;;;;;5011268;28;19913;-52
2022/03/16 08:24:06;;;;;;;;;;;;;;;;;;5011699;28;19909;-56
2022/03/16 08:26:32;;;;;;;;;;;;;;;;;;5013224;28;19961;-58
2022/03/16 08:28:59;;;;;;;;;;;;;;;;;;4996422;28;19909;-61
2022/03/16 08:31:25;;;;;;;;;;;;;;;;;;5014615;28;19910;-68
2022/03/16 08:33:52;;;;;;;;;;;;;;;;;;5013205;28;19909;-62
2022/03/16 08:36:18;;;;;;;;;;;;;;;;;;5013911;28;20020;-42
2022/03/16 08:38:45;;;;;;;;;;;;;;;;;;5014758;28;20299;-64
2022/03/16 08:41:11;;;;;;;;;;;;;;;;;;5014862;28;19914;-59
2022/03/16 08:43:38;;;;;;;;;;;;;;;;;;5013046;28;19921;-49
2022/03/16 08:46:04;;;;;;;;;;;;;;;;;;5012935;28;19963;-51
2022/03/16 08:48:31;;;;;;;;;;;;;;;;;;5011028;28;19921;-51
2022/03/16 08:50:57;;;;;;;;;;;;;;;;;;5014542;28;20379;-43
2022/03/16 08:53:24;;;;;;;;;;;;;;;;;;4995296;28;20000;-44
2022/03/16 08:55:51;;;;;;;;;;;;;;;;;;5013128;28;19917;-47
2022/03/16 08:58:18;;;;;;;;;;;;;;;;;;5014663;28;19913;-47
2022/03/16 09:00:44;;;;;;;;;;;;;;;;;;5013741;28;20336;-59
2022/03/16 09:03:11;;;;;;;;;;;;;;;;;;5012479;28;19916;-49
2022/03/16 09:05:37;;;;;;;;;;;;;;;;;;5013990;28;20245;-45
2022/03/16 09:08:04;;;;;;;;;;;;;;;;;;5013647;28;19905;-44
2022/03/16 09:10:30;;;;;;;;;;;;;;;;;;5013238;28;19913;-45
2022/03/16 09:12:57;;;;;;;;;;;;;;;;;;5014317;28;20367;-49
2022/03/16 09:15:24;;;;;;;;;;;;;;;;;;5014279;28;20327;-47
2022/03/16 09:17:52;;;;;;;;;;;;;;;;;;5014400;28;19913;-44
2022/03/16 09:20:19;;;;;;;;;;;;;;;;;;5014216;28;19909;-53
2022/03/16 09:22:45;;;;;;;;;;;;;;;;;;5004163;28;19959;-45
2022/03/16 09:25:12;;;;;;;;;;;;;;;;;;5009731;28;19909;-46
2022/03/16 09:27:38;;;;;;;;;;;;;;;;;;5009773;28;20032;-58
2022/03/16 09:30:05;;;;;;;;;;;;;;;;;;5008560;28;20395;-57
2022/03/16 09:32:33;;;;;;;;;;;;;;;;;;5010241;28;19916;-60
2022/03/16 09:34:59;;;;;;;;;;;;;;;;;;5008217;28;20291;-52
2022/03/16 09:37:26;;;;;;;;;;;;;;;;;;5011376;28;20321;-48
2022/03/16 09:39:52;;;;;;;;;;;;;;;;;;5009818;28;19910;-45
2022/03/16 09:42:22;;;;;;;;;;;;;;;;;;5009531;28;19949;-53
2022/03/16 09:44:50;;;;;;;;;;;;;;;;;;5009535;28;19909;-46
2022/03/16 09:47:17;;;;;;;;;;;;;;;;;;5009610;28;20372;-45
2022/03/16 09:49:44;;;;;;;;;;;;;;;;;;5009771;28;19909;-48
2022/03/16 09:52:10;;;;;;;;;;;;;;;;;;5011961;28;20383;-45
2022/03/16 09:54:37;;;;;;;;;;;;;;;;;;5005921;28;19955;-45
2022/03/16 09:57:03;;;;;;;;;;;;;;;;;;5012173;28;19924;-51
2022/03/16 09:59:30;;;;;;;;;;;;;;;;;;5011843;28;20264;-52
2022/03/16 10:01:56;;;;;;;;;;;;;;;;;;5012656;28;20034;-45
2022/03/16 10:04:23;;;;;;;;;;;;;;;;;;5006532;28;19913;-47
2022/03/16 10:06:49;;;;;;;;;;;;;;;;;;5012551;28;19913;-55
2022/03/16 10:14:45;;;;;;;;;;;;;;;;;;5004760;28;20019;-49
2022/03/16 10:19:57;;;;;;;;;;;;;;;;;;5011960;28;19919;-57
2022/03/16 10:22:26;;;;;;;;;;;;;;;;;;5011436;28;19917;-45
2022/03/16 10:24:54;;;;;;;;;;;;;;;;;;5007167;28;19960;-52
2022/03/16 10:27:21;;;;;;;;;;;;;;;;;;4994821;28;19910;-55
2022/03/16 10:29:47;;;;;;;;;;;;;;;;;;5011926;28;19920;-46
2022/03/16 10:32:14;;;;;;;;;;;;;;;;;;5012397;28;20337;-47
2022/03/16 10:34:40;;;;;;;;;;;;;;;;;;5007068;28;19932;-48
2022/03/16 10:37:09;;;;;;;;;;;;;;;;;;5011970;28;19930;-53
2022/03/16 10:39:35;;;;;;;;;;;;;;;;;;5011425;28;20371;-59
2022/03/16 10:47:31;;;;;;;;;;;;;;;;;;5010492;28;20003;-45
2022/03/16 10:49:57;;;;;;;;;;;;;;;;;;5010875;28;20236;-43
2022/03/16 10:52:27;;;;;;;;;;;;;;;;;;5010740;28;19963;-56
2022/03/16 10:54:53;;;;;;;;;;;;;;;;;;5006876;28;20374;-53
2022/03/16 10:57:20;;;;;;;;;;;;;;;;;;5012214;28;19925;-51
2022/03/16 10:59:50;;;;;;;;;;;;;;;;;;5011513;28;19910;-53
2022/03/16 11:02:17;;;;;;;;;;;;;;;;;;5008156;28;19920;-45
2022/03/16 11:04:43;;;;;;;;;;;;;;;;;;5006090;28;19953;-54
2022/03/16 11:07:10;;;;;;;;;;;;;;;;;;5011573;28;20360;-57
2022/03/16 11:09:36;;;;;;;;;;;;;;;;;;5013196;28;20384;-48
2022/03/16 11:14:48;;;;;;;;;;;;;;;;;;5010246;28;19920;-41
2022/03/16 11:17:14;;;;;;;;;;;;;;;;;;5015805;28;20356;-47
2022/03/16 11:19:44;;;;;;;;;;;;;;;;;;5014986;28;20253;-45
2022/03/16 11:22:11;;;;;;;;;;;;;;;;;;5016030;28;19965;-42
2022/03/16 11:24:39;;;;;;;;;;;;;;;;;;5009250;28;19978;-41
2022/03/16 11:27:12;;;;;;;;;;;;;;;;;;5011992;28;20390;-48
2022/03/16 11:29:39;;;;;;;;;;;;;;;;;;5015300;28;19936;-42
2022/03/16 11:32:05;;;;;;;;;;;;;;;;;;5014876;28;19947;-44
2022/03/16 11:34:33;;;;;;;;;;;;;;;;;;5009781;28;20355;-44
2022/03/16 11:36:59;;;;;;;;;;;;;;;;;;4997271;28;20554;-48
2022/03/16 11:39:26;;;;;;;;;;;;;;;;;;5010374;28;19967;-49
2022/03/16 11:41:52;;;;;;;;;;;;;;;;;;5014118;28;19909;-51
2022/03/16 11:44:19;;;;;;;;;;;;;;;;;;5009301;28;19918;-43
2022/03/16 11:46:46;;;;;;;;;;;;;;;;;;5015098;28;19909;-43
2022/03/16 11:49:12;;;;;;;;;;;;;;;;;;5015257;28;19960;-43
2022/03/16 11:51:43;;;;;;;;;;;;;;;;;;5014166;28;19914;-44
2022/03/16 11:54:09;;;;;;;;;;;;;;;;;;5009362;28;19987;-47
2022/03/16 11:56:42;;;;;;;;;;;;;;;;;;5014224;28;19968;-54
2022/03/16 11:59:10;;;;;;;;;;;;;;;;;;5014575;28;19917;-45
2022/03/16 12:01:39;;;;;;;;;;;;;;;;;;5013918;28;19915;-49
2022/03/16 12:04:12;;;;;;;;;;;;;;;;;;5008728;28;19924;-45
2022/03/16 12:06:38;;;;;;;;;;;;;;;;;;5013401;28;19921;-51
2022/03/16 12:09:04;;;;;;;;;;;;;;;;;;5013927;28;19916;-53
2022/03/16 12:14:15;;;;;;;;;;;;;;;;;;5006293;28;19925;-52
2022/03/16 12:16:42;;;;;;;;;;;;;;;;;;5014654;28;19921;-52
2022/03/16 12:19:08;;;;;;;;;;;;;;;;;;5014891;28;19917;-44
2022/03/16 12:21:36;;;;;;;;;;;;;;;;;;5012793;28;19910;-42
2022/03/16 12:25:08;;;;;;;;;;;;;;;;;;5009424;28;19924;-47
2022/03/16 12:28:55;;;;;;;;;;;;;;;;;;5011668;28;19917;-41
2022/03/16 12:29:35;;;;;;;;;;;;;;;;;;5013940;28;19917;-45
2022/03/16 12:32:01;;;;;;;;;;;;;;;;;;4996320;28;20327;-44
2022/03/16 12:34:29;;;;;;;;;;;;;;;;;;5008764;28;19964;-44
2022/03/16 12:36:55;;;;;;;;;;;;;;;;;;5014433;28;19927;-43
2022/03/16 12:39:22;;;;;;;;;;;;;;;;;;5014497;28;19910;-47
2022/03/16 12:44:41;;;;;;;;;;;;;;;;;;5007264;28;20456;-42
2022/03/16 12:47:08;;;;;;;;;;;;;;;;;;5014340;28;20347;-43
2022/03/16 12:49:34;;;;;;;;;;;;;;;;;;5014226;28;19993;-45
2022/03/16 12:52:01;;;;;;;;;;;;;;;;;;5014007;28;19937;-42
2022/03/16 12:54:28;;;;;;;;;;;;;;;;;;5013407;28;19996;-58
2022/03/16 12:56:55;;;;;;;;;;;;;;;;;;5014903;28;19917;-56
2022/03/16 12:59:22;;;;;;;;;;;;;;;;;;5015052;28;19909;-57
2022/03/16 13:01:48;;;;;;;;;;;;;;;;;;5013820;28;19914;-57
2022/03/16 13:04:16;;;;;;;;;;;;;;;;;;5014913;28;19910;-55
2022/03/16 13:06:42;;;;;;;;;;;;;;;;;;5015016;28;19916;-54
2022/03/16 13:09:09;;;;;;;;;;;;;;;;;;5014698;28;19910;-58
2022/03/16 13:11:35;;;;;;;;;;;;;;;;;;5014678;28;19996;-55
2022/03/16 13:14:02;;;;;;;;;;;;;;;;;;5015193;28;19910;-56
2022/03/16 13:16:28;;;;;;;;;;;;;;;;;;5014849;28;19918;-55
2022/03/16 13:18:55;;;;;;;;;;;;;;;;;;5014887;28;19916;-59
2022/03/16 13:21:21;;;;;;;;;;;;;;;;;;5013953;28;19975;-55
2022/03/16 13:23:48;;;;;;;;;;;;;;;;;;5014236;28;20363;-57
2022/03/16 13:26:15;;;;;;;;;;;;;;;;;;5014690;28;20367;-60
2022/03/16 13:28:42;;;;;;;;;;;;;;;;;;5014734;28;19916;-59
2022/03/16 13:31:08;;;;;;;;;;;;;;;;;;5014329;28;19941;-60
2022/03/16 13:33:35;;;;;;;;;;;;;;;;;;5014143;28;19986;-61
2022/03/16 13:36:01;;;;;;;;;;;;;;;;;;5014338;28;20402;-60
2022/03/16 13:38:28;;;;;;;;;;;;;;;;;;5014339;28;20384;-56
2022/03/16 13:40:54;;;;;;;;;;;;;;;;;;5014469;28;20264;-59
2022/03/16 13:43:23;;;;;;;;;;;;;;;;;;5014413;28;19909;-59
2022/03/16 13:45:53;;;;;;;;;;;;;;;;;;5014387;28;20306;-60
2022/03/16 13:48:19;;;;;;;;;;;;;;;;;;5014037;28;19917;-60
2022/03/16 13:50:49;;;;;;;;;;;;;;;;;;5013942;28;20316;-53
2022/03/16 13:53:15;;;;;;;;;;;;;;;;;;5014105;28;20340;-56
2022/03/16 13:55:46;;;;;;;;;;;;;;;;;;5013786;28;19906;-58
2022/03/16 13:58:13;;;;;;;;;;;;;;;;;;5014178;28;19917;-58
2022/03/16 14:00:44;;;;;;;;;;;;;;;;;;5013958;28;19909;-57
2022/03/16 14:03:11;;;;;;;;;;;;;;;;;;5014059;28;19909;-56
2022/03/16 14:05:39;;;;;;;;;;;;;;;;;;5013747;28;19909;-58
2022/03/16 14:08:05;;;;;;;;;;;;;;;;;;5013653;28;19909;-56
2022/03/16 14:10:33;;;;;;;;;;;;;;;;;;5013704;28;20004;-59
2022/03/16 14:13:00;;;;;;;;;;;;;;;;;;5013734;28;19949;-52
2022/03/16 14:15:26;;;;;;;;;;;;;;;;;;5013605;28;19913;-59
2022/03/16 14:18:01;;;;;;;;;;;;;;;;;;5013801;28;19949;-58
2022/03/16 14:20:27;;;;;;;;;;;;;;;;;;5013642;28;19913;-59
2022/03/16 14:22:54;;;;;;;;;;;;;;;;;;5014043;28;20256;-57
2022/03/16 14:25:20;;;;;;;;;;;;;;;;;;5013597;28;20008;-56
2022/03/16 14:27:50;;;;;;;;;;;;;;;;;;5013493;28;20375;-55
2022/03/16 14:30:17;;;;;;;;;;;;;;;;;;5013536;28;19992;-53
2022/03/16 14:32:46;;;;;;;;;;;;;;;;;;5013562;28;19917;-59
2022/03/16 14:35:12;;;;;;;;;;;;;;;;;;5013426;28;20013;-59
2022/03/16 14:37:39;;;;;;;;;;;;;;;;;;5013102;28;19933;-50
2022/03/16 14:40:05;;;;;;;;;;;;;;;;;;5013339;28;19912;-57
2022/03/16 14:42:31;;;;;;;;;;;;;;;;;;5013343;28;19909;-53
2022/03/16 14:44:58;;;;;;;;;;;;;;;;;;5012629;28;19913;-52
2022/03/16 14:47:24;;;;;;;;;;;;;;;;;;5013441;28;19983;-45
2022/03/16 14:49:52;;;;;;;;;;;;;;;;;;5013496;28;19910;-49
2022/03/16 14:52:18;;;;;;;;;;;;;;;;;;5013358;28;20360;-48
2022/03/16 14:54:45;;;;;;;;;;;;;;;;;;5013301;28;19909;-52
2022/03/16 14:57:11;;;;;;;;;;;;;;;;;;5013220;28;20356;-57
2022/03/16 14:59:38;;;;;;;;;;;;;;;;;;5012966;28;19921;-58
2022/03/16 15:02:04;;;;;;;;;;;;;;;;;;5013519;28;19906;-56
2022/03/16 15:04:32;;;;;;;;;;;;;;;;;;5013301;28;19937;-59
2022/03/16 15:06:58;;;;;;;;;;;;;;;;;;5013560;28;20012;-57
2022/03/16 15:09:24;;;;;;;;;;;;;;;;;;5013053;28;19909;-56
2022/03/16 15:11:51;;;;;;;;;;;;;;;;;;5013091;28;19905;-57
2022/03/16 15:14:17;;;;;;;;;;;;;;;;;;5013202;28;19956;-54
2022/03/16 15:16:44;;;;;;;;;;;;;;;;;;5013144;28;19917;-58
2022/03/16 15:19:10;;;;;;;;;;;;;;;;;;5013479;28;19910;-58
2022/03/16 15:21:37;;;;;;;;;;;;;;;;;;5012850;28;19913;-53
2022/03/16 15:24:03;;;;;;;;;;;;;;;;;;5013098;28;19932;-47
2022/03/16 15:26:31;;;;;;;;;;;;;;;;;;5013167;28;19917;-52
2022/03/16 15:28:58;;;;;;;;;;;;;;;;;;5013104;28;19921;-42
2022/03/16 15:31:24;;;;;;;;;;;;;;;;;;5013313;28;19917;-44
2022/03/16 15:33:51;;;;;;;;;;;;;;;;;;5013081;28;19910;-53
2022/03/16 15:36:17;;;;;;;;;;;;;;;;;;5012874;28;20066;-53
2022/03/16 15:38:44;;;;;;;;;;;;;;;;;;5012701;28;20087;-53
2022/03/16 15:43:56;;;;;;;;;;;;;;;;;;5013094;28;20276;-60
2022/03/16 15:46:22;;;;;;;;;;;;;;;;;;5012981;28;19910;-57
2022/03/16 15:48:49;;;;;;;;;;;;;;;;;;5013084;28;19909;-56
2022/03/16 15:51:15;;;;;;;;;;;;;;;;;;5012855;28;20000;-56
2022/03/16 15:53:42;;;;;;;;;;;;;;;;;;5006957;28;19964;-55
2022/03/16 15:56:08;;;;;;;;;;;;;;;;;;5015471;28;19920;-62
2022/03/16 15:58:34;;;;;;;;;;;;;;;;;;5016397;28;20434;-57
2022/03/16 16:01:01;;;;;;;;;;;;;;;;;;5016528;28;20279;-55
2022/03/16 16:03:27;;;;;;;;;;;;;;;;;;5015794;28;19914;-56
2022/03/16 16:05:54;;;;;;;;;;;;;;;;;;5015891;28;19909;-57
2022/03/16 16:08:22;;;;;;;;;;;;;;;;;;5016037;28;19964;-59
2022/03/16 16:11:07;;;;;;;;;;;;;;;;;;5016348;28;20366;-58
2022/03/16 16:13:34;;;;;;;;;;;;;;;;;;5016131;28;19963;-59
2022/03/16 16:16:00;;;;;;;;;;;;;;;;;;5016176;28;20012;-59
2022/03/16 16:18:27;;;;;;;;;;;;;;;;;;5016026;28;19913;-58
2022/03/16 16:20:53;;;;;;;;;;;;;;;;;;5016093;28;20325;-60
2022/03/16 16:23:20;;;;;;;;;;;;;;;;;;5015883;28;19957;-55
2022/03/16 16:25:46;;;;;;;;;;;;;;;;;;5015804;28;19909;-56
2022/03/16 16:28:13;;;;;;;;;;;;;;;;;;5015784;28;19963;-58
2022/03/16 16:30:39;;;;;;;;;;;;;;;;;;5015837;28;19917;-60
2022/03/16 16:33:06;;;;;;;;;;;;;;;;;;5015733;28;19916;-57
2022/03/16 16:35:32;;;;;;;;;;;;;;;;;;5015524;28;19909;-60
2022/03/16 16:37:59;;;;;;;;;;;;;;;;;;5015182;28;19921;-56
2022/03/16 16:40:28;;;;;;;;;;;;;;;;;;5015500;28;19945;-59
2022/03/16 16:45:56;;;;;;;;;;;;;;;;;;4974599;28;19907;-58
2022/03/16 16:48:23;;;;;;;;;;;;;;;;;;5006823;28;19916;-60
2022/03/16 16:50:52;;;;;;;;;;;;;;;;;;5015411;28;19940;-61
2022/03/16 16:53:19;;;;;;;;;;;;;;;;;;5015206;28;19916;-60
2022/03/16 16:55:45;;;;;;;;;;;;;;;;;;5014961;28;19924;-60
2022/03/16 16:58:11;;;;;;;;;;;;;;;;;;5015703;28;19909;-59
2022/03/16 17:00:39;;;;;;;;;;;;;;;;;;5014986;28;20356;-58
2022/03/16 17:03:05;;;;;;;;;;;;;;;;;;5014914;28;19964;-60
2022/03/16 17:05:32;;;;;;;;;;;;;;;;;;5015042;28;19910;-60
2022/03/16 17:07:58;;;;;;;;;;;;;;;;;;5014238;28;19909;-60
2022/03/16 17:10:25;;;;;;;;;;;;;;;;;;5014923;28;19960;-60